Virtual Norwegian is not affiliated with Norwegian Air Shuttle in any way.
If you are looking for the real "Norwegian", or you wish to book Norwegian flights, please visit Norwegian.com


We use cookies to ensure you get the best experience on our website.   ACCEPT

EHAM - AMS - Amsterdam (Schiphol)

General Info Alternate Airport
ICAO: EHAM Elevation: -11 ft ICAO: EHRD
IATA: AMS Country: Netherlands IATA: RTM
City: Amsterdam Charts: Log in to view charts City: Rotterdam
Name: Schiphol Hub: No Name Rotterdam
General Info
ICAO: EHAM
IATA: AMS
City: Amsterdam
Name: Schiphol
Elevation: -11 ft
Country: Netherlands
Charts: Log in to view charts
Hub: No
 
Alternate Airport
ICAO: EHRD
IATA: RTM
City: Rotterdam
Name: Rotterdam

Weather
170625Z 15012KT 5000 -DZRA FEW005 BKN007 BKN010 05/05 Q1011 TEMPO 4000 RADZ
Weather
170625Z 15012KT 5000 -DZRA FEW005 BKN007 BKN010 05/05 Q1011 TEMPO 4000 RADZ

Runway Info
04
Length ILS/LOC Heading
2014 m N/A 041
06
Length ILS/LOC Course
3500 m 110.55 058
09
Length ILS/LOC Heading
3453 m N/A 087
18C
Length ILS/LOC Course
3300 m 109.50 183
18L
Length ILS/LOC Heading
3400 m N/A 183
18R
Length ILS/LOC Course
3800 m 110.10 183
22
Length ILS/LOC Course
2014 m 109.15 221
24
Length ILS/LOC Heading
3500 m N/A 238
27
Length ILS/LOC Course
3453 m 111.55 267
36C
Length ILS/LOC Course
3300 m 108.75 003
36L
Length ILS/LOC Heading
3800 m N/A 003
36R
Length ILS/LOC Course
3400 m 111.95 003

NOTAMs
NOTAMs currently unavailable.
NOTAMs
NOTAMs currently unavailable

Route map
Airport
Airport (hub)